Terminal Aerodrome Forecast
Issued by NWS

Home | Current Version | Previous Version | Text Only | Print | Product List | Glossary On
Versions: 1 2 3 4 5 6 7 8 9 10 11 12 13 14 15
470
FTUS42 KTBW 210537
TAFRSW
TAF
KRSW 210537Z 2106/2206 08006KT P6SM FEW050 SCT250
     FM210900 07007KT P6SM SCT050 OVC080
     FM211100 08006KT P6SM VCSH SCT030 BKN050 OVC080
     FM211400 12008KT P6SM VCSH SCT030 BKN050 OVC080
     FM211800 16007KT 6SM -RA VCTS SCT020CB BKN050 OVC080
      TEMPO 2118/2122 3SM RA BKN020 OVC040
     FM212200 23006KT P6SM VCSH SCT050 BKN100
     FM220000 VRB03KT P6SM SCT040 BKN250=

USA.gov is the U.S. government's official web portal to all federal, state and local government web resources and services.